createdAt,value
2023-04-27T00:01:23.199Z,3.65
2023-04-27T00:03:51.127Z,3.97
2023-04-27T00:06:18.186Z,5.05
2023-04-27T00:08:45.157Z,5.70
2023-04-27T00:11:12.163Z,5.95
2023-04-27T00:13:39.074Z,6.03
2023-04-27T00:16:06.539Z,6.20
2023-04-27T00:18:33.502Z,5.55
2023-04-27T00:21:00.492Z,5.43
2023-04-27T00:23:28.015Z,5.85
2023-04-27T00:25:55.043Z,5.68
2023-04-27T00:28:21.949Z,4.70
2023-04-27T00:30:49.044Z,3.95
2023-04-27T00:33:17.360Z,4.18
2023-04-27T00:35:44.286Z,3.88
2023-04-27T00:38:11.694Z,4.13
2023-04-27T00:40:39.318Z,4.75
2023-04-27T00:43:06.494Z,4.30
2023-04-27T00:45:41.319Z,4.85
2023-04-27T00:48:08.550Z,4.68
2023-04-27T00:50:38.687Z,4.95
2023-04-27T00:53:07.816Z,4.43
2023-04-27T00:55:34.772Z,5.50
2023-04-27T00:58:02.793Z,5.38
2023-04-27T01:00:29.767Z,5.07
2023-04-27T01:02:57.189Z,5.70
2023-04-27T01:05:27.432Z,5.95
2023-04-27T01:07:55.384Z,6.18
2023-04-27T01:10:22.489Z,5.20
2023-04-27T01:12:49.474Z,5.65
2023-04-27T01:15:16.679Z,5.05
2023-04-27T01:17:43.807Z,5.18
2023-04-27T01:20:11.504Z,5.15
2023-04-27T01:22:39.056Z,4.30
2023-04-27T01:25:07.974Z,3.90
2023-04-27T01:27:34.939Z,4.60
2023-04-27T01:30:03.950Z,4.57
2023-04-27T01:32:31.079Z,4.72
2023-04-27T01:34:58.015Z,4.10
2023-04-27T01:37:27.394Z,4.80
2023-04-27T01:39:54.303Z,4.45
2023-04-27T01:42:21.274Z,4.70
2023-04-27T01:44:49.014Z,4.60
2023-04-27T01:47:17.305Z,4.60
2023-04-27T01:49:44.769Z,4.85
2023-04-27T01:52:11.701Z,4.60
2023-04-27T01:54:39.078Z,4.90
2023-04-27T01:57:06.981Z,4.57
2023-04-27T01:59:34.188Z,4.30
2023-04-27T02:02:01.815Z,4.63
2023-04-27T02:04:30.060Z,4.43
2023-04-27T02:06:57.924Z,5.95
2023-04-27T02:09:25.018Z,4.97
2023-04-27T02:11:52.183Z,4.90
2023-04-27T02:14:19.196Z,5.00
2023-04-27T02:16:47.310Z,4.80
2023-04-27T02:19:14.431Z,4.53
2023-04-27T02:21:41.616Z,3.60
2023-04-27T02:24:09.784Z,4.07
2023-04-27T02:26:36.682Z,7.30
2023-04-27T02:29:03.984Z,6.97
2023-04-27T02:31:31.807Z,6.35
2023-04-27T02:33:58.772Z,4.25
2023-04-27T02:36:25.876Z,3.92
2023-04-27T02:38:56.523Z,3.60
2023-04-27T02:41:23.536Z,3.95
2023-04-27T02:43:53.519Z,3.85
2023-04-27T02:46:20.483Z,3.83
2023-04-27T02:48:47.420Z,4.25
2023-04-27T02:51:14.325Z,4.28
2023-04-27T02:53:41.212Z,4.18
2023-04-27T02:56:08.177Z,4.30
2023-04-27T02:58:35.248Z,4.07
2023-04-27T03:01:02.654Z,3.50
2023-04-27T03:03:29.760Z,4.10
2023-04-27T03:05:56.786Z,4.15
2023-04-27T03:08:23.728Z,4.10
2023-04-27T03:10:51.286Z,4.40
2023-04-27T03:13:18.337Z,3.90
2023-04-27T03:15:45.764Z,5.18
2023-04-27T03:18:12.887Z,4.60
2023-04-27T03:20:41.444Z,4.32
2023-04-27T03:23:08.365Z,3.67
2023-04-27T03:25:35.194Z,4.05
2023-04-27T03:28:02.424Z,3.45
2023-04-27T03:30:29.480Z,3.92
2023-04-27T03:32:56.575Z,4.20
2023-04-27T03:35:23.530Z,4.43
2023-04-27T03:37:50.477Z,6.95
2023-04-27T03:40:17.480Z,4.45
2023-04-27T03:42:44.425Z,4.00
2023-04-27T03:45:12.264Z,4.20
2023-04-27T03:47:39.414Z,3.83
2023-04-27T03:50:06.929Z,4.18
2023-04-27T03:52:33.894Z,5.05
2023-04-27T03:55:00.935Z,5.93
2023-04-27T03:57:28.087Z,5.00
2023-04-27T03:59:55.133Z,5.63
2023-04-27T04:02:22.335Z,5.47
2023-04-27T04:04:49.597Z,4.47
2023-04-27T04:07:17.844Z,4.72
2023-04-27T04:09:45.847Z,4.35
2023-04-27T04:12:12.787Z,4.80
2023-04-27T04:14:40.283Z,4.65
2023-04-27T04:17:10.985Z,5.05
2023-04-27T04:19:40.569Z,4.72
2023-04-27T04:22:07.603Z,4.90
2023-04-27T04:24:34.623Z,5.35
2023-04-27T04:27:03.238Z,5.80
2023-04-27T04:29:31.257Z,4.63
2023-04-27T04:31:59.709Z,5.38
2023-04-27T04:34:27.426Z,4.97
2023-04-27T04:36:57.467Z,4.60
2023-04-27T04:39:24.531Z,5.55
2023-04-27T04:41:51.695Z,5.60
2023-04-27T04:44:20.810Z,5.20
2023-04-27T04:46:48.266Z,5.38
2023-04-27T04:49:15.659Z,5.15
2023-04-27T04:51:43.952Z,5.32
2023-04-27T04:54:12.448Z,5.20
2023-04-27T04:56:39.800Z,5.05
2023-04-27T04:59:06.805Z,5.20
2023-04-27T05:01:33.866Z,6.18
2023-04-27T05:04:01.112Z,5.97
2023-04-27T05:06:28.368Z,6.50
2023-04-27T05:08:55.367Z,8.13
2023-04-27T05:11:22.538Z,9.20
2023-04-27T05:13:49.493Z,7.43
2023-04-27T05:16:16.551Z,10.43
2023-04-27T05:18:43.462Z,4.38
2023-04-27T05:21:17.650Z,4.30
2023-04-27T05:23:44.605Z,4.75
2023-04-27T05:26:13.343Z,5.10
2023-04-27T05:28:40.512Z,4.80
2023-04-27T05:31:07.617Z,4.85
2023-04-27T05:33:34.594Z,4.75
2023-04-27T05:36:02.630Z,4.53
2023-04-27T05:38:29.682Z,4.28
2023-04-27T05:40:57.393Z,3.78
2023-04-27T05:43:25.150Z,3.88
2023-04-27T05:45:53.237Z,3.70
2023-04-27T05:55:24.630Z,5.18
2023-04-27T05:58:06.604Z,5.95
2023-04-27T06:00:36.721Z,5.97
2023-04-27T06:07:20.273Z,6.68
2023-04-27T06:09:56.643Z,6.93
2023-04-27T06:12:26.623Z,6.25
2023-04-27T06:14:58.243Z,6.05
2023-04-27T06:17:26.750Z,6.07
2023-04-27T06:19:56.777Z,5.63
2023-04-27T06:22:27.530Z,5.38
2023-04-27T06:24:54.730Z,5.25
2023-04-27T06:27:24.392Z,6.13
2023-04-27T06:29:52.135Z,7.32
2023-04-27T06:32:27.606Z,8.57
2023-04-27T06:58:19.416Z,4.55
2023-04-27T07:00:47.515Z,5.38
2023-04-27T07:09:27.555Z,7.85
2023-04-27T07:11:55.440Z,7.38
2023-04-27T07:15:00.745Z,6.05
2023-04-27T07:22:16.298Z,6.55
2023-04-27T07:28:44.352Z,6.25
2023-04-27T07:31:11.495Z,6.60
2023-04-27T07:34:08.305Z,6.30
2023-04-27T07:36:35.452Z,6.72
2023-04-27T07:43:16.491Z,6.22
2023-04-27T07:45:44.200Z,6.00
2023-04-27T07:48:12.206Z,6.43
2023-04-27T07:50:39.469Z,5.32
2023-04-27T07:53:06.553Z,5.00
2023-04-27T07:55:34.371Z,6.13
2023-04-27T07:58:02.534Z,6.13
2023-04-27T08:00:29.526Z,5.90
2023-04-27T08:02:56.811Z,5.90
2023-04-27T08:05:24.615Z,5.90
2023-04-27T08:07:54.613Z,6.68
2023-04-27T08:10:23.796Z,6.93
2023-04-27T08:12:51.599Z,7.63
2023-04-27T08:15:28.874Z,6.97
2023-04-27T08:18:51.836Z,7.65
2023-04-27T08:21:45.345Z,7.22
2023-04-27T08:24:24.031Z,7.88
2023-04-27T08:27:16.746Z,7.45
2023-04-27T08:29:48.426Z,7.22
2023-04-27T08:32:24.041Z,7.10
2023-04-27T08:34:51.781Z,8.05
2023-04-27T08:37:33.741Z,8.15
2023-04-27T08:40:03.297Z,7.63
2023-04-27T08:42:36.788Z,6.47
2023-04-27T08:45:07.542Z,5.80
2023-04-27T08:47:43.477Z,6.43
2023-04-27T08:54:54.450Z,5.97
2023-04-27T08:58:32.191Z,6.35
2023-04-27T09:01:07.957Z,5.45
2023-04-27T09:03:36.793Z,5.57
2023-04-27T09:06:06.318Z,5.32
2023-04-27T09:08:56.601Z,5.50
2023-04-27T09:12:00.230Z,5.25
2023-04-27T09:17:12.635Z,5.13
2023-04-27T09:20:31.285Z,4.97
2023-04-27T09:23:15.520Z,5.97
2023-04-27T09:26:21.494Z,4.80
2023-04-27T09:29:22.932Z,5.82
2023-04-27T09:32:23.131Z,5.03
2023-04-27T09:41:41.120Z,4.00
2023-04-27T09:48:05.632Z,4.75
2023-04-27T09:50:59.082Z,5.97
2023-04-27T09:57:02.706Z,5.25
2023-04-27T10:00:15.978Z,5.22
2023-04-27T10:03:17.535Z,5.18
2023-04-27T10:06:52.964Z,4.50
2023-04-27T10:09:37.362Z,4.10
2023-04-27T10:12:51.206Z,2.55
2023-04-27T10:15:34.223Z,4.95
2023-04-27T10:18:28.368Z,3.63
2023-04-27T10:21:22.562Z,4.68
2023-04-27T10:24:42.718Z,5.22
2023-04-27T10:27:58.131Z,4.78
2023-04-27T10:30:46.525Z,4.75
2023-04-27T10:33:29.744Z,3.88
2023-04-27T10:36:46.612Z,3.60
2023-04-27T10:39:55.039Z,2.95
2023-04-27T10:42:54.893Z,1.98
2023-04-27T10:53:14.289Z,1.50
2023-04-27T10:56:07.999Z,2.40
2023-04-27T10:58:59.275Z,2.70
2023-04-27T11:02:08.352Z,2.35
2023-04-27T11:05:05.243Z,2.22
2023-04-27T11:07:36.702Z,2.55
2023-04-27T11:10:04.018Z,2.78
2023-04-27T11:12:32.610Z,2.38
2023-04-27T11:14:59.695Z,2.45
2023-04-27T11:17:31.049Z,2.53
2023-04-27T11:19:59.079Z,1.77
2023-04-27T11:22:26.661Z,1.70
2023-04-27T11:24:54.007Z,1.90
2023-04-27T11:27:23.805Z,2.60
2023-04-27T11:29:50.782Z,2.20
2023-04-27T11:32:21.865Z,1.95
2023-04-27T11:34:55.055Z,2.20
2023-04-27T11:37:25.461Z,2.00
2023-04-27T11:39:54.700Z,1.48
2023-04-27T11:42:31.659Z,1.35
2023-04-27T11:45:06.190Z,1.38
2023-04-27T11:47:35.533Z,1.17
2023-04-27T11:50:07.990Z,1.27
2023-04-27T11:52:36.614Z,0.85
2023-04-27T11:55:04.759Z,1.27
2023-04-27T11:57:34.824Z,1.20
2023-04-27T12:00:14.768Z,1.42
2023-04-27T12:02:45.169Z,0.93
2023-04-27T12:05:18.548Z,1.08
2023-04-27T12:07:46.517Z,1.63
2023-04-27T12:10:13.685Z,2.30
2023-04-27T12:12:43.626Z,1.80
2023-04-27T12:15:11.322Z,1.50
2023-04-27T12:17:39.455Z,1.40
2023-04-27T12:20:07.145Z,1.55
2023-04-27T12:22:34.466Z,1.70
2023-04-27T12:25:01.736Z,2.38
2023-04-27T12:27:29.045Z,2.35
2023-04-27T12:29:56.683Z,2.25
2023-04-27T12:32:23.733Z,1.95
2023-04-27T12:34:50.937Z,1.52
2023-04-27T12:37:17.962Z,1.50
2023-04-27T12:39:44.912Z,1.50
2023-04-27T12:42:11.983Z,1.40
2023-04-27T12:44:38.940Z,1.90
2023-04-27T12:47:06.109Z,2.15
2023-04-27T12:49:33.164Z,1.60
2023-04-27T12:52:00.198Z,1.60
2023-04-27T12:54:27.300Z,1.77
2023-04-27T12:56:54.466Z,1.80
2023-04-27T12:59:21.539Z,1.58
2023-04-27T13:01:49.035Z,1.80
2023-04-27T13:04:22.251Z,1.80
2023-04-27T13:06:49.734Z,1.55
2023-04-27T13:09:17.352Z,1.33
2023-04-27T13:11:45.048Z,1.33
2023-04-27T13:14:13.271Z,1.50
2023-04-27T13:16:41.903Z,1.40
2023-04-27T13:19:09.033Z,1.25
2023-04-27T13:21:36.415Z,1.27
2023-04-27T13:24:03.627Z,1.67
2023-04-27T13:26:30.717Z,1.48
2023-04-27T13:28:58.220Z,1.70
2023-04-27T13:31:25.353Z,1.50
2023-04-27T13:33:53.630Z,1.45
2023-04-27T13:36:20.969Z,1.60
2023-04-27T13:38:48.343Z,1.77
2023-04-27T13:41:15.869Z,1.50
2023-04-27T13:43:43.706Z,1.50
2023-04-27T13:46:10.886Z,1.98
2023-04-27T13:48:37.805Z,1.80
2023-04-27T13:51:04.827Z,2.03
2023-04-27T13:53:33.965Z,1.90
2023-04-27T13:56:01.044Z,1.42
2023-04-27T13:58:29.201Z,1.77
2023-04-27T14:00:56.755Z,1.70
2023-04-27T14:03:27.194Z,2.00
2023-04-27T14:05:54.393Z,1.88
2023-04-27T14:08:22.653Z,1.63
2023-04-27T14:10:49.626Z,1.67
2023-04-27T14:13:19.279Z,1.70
2023-04-27T14:15:46.784Z,1.90
2023-04-27T14:18:13.944Z,1.85
2023-04-27T14:20:42.362Z,1.75
2023-04-27T14:23:10.930Z,2.03
2023-04-27T14:25:39.161Z,2.53
2023-04-27T14:28:06.785Z,2.33
2023-04-27T14:30:35.019Z,1.98
2023-04-27T14:33:03.082Z,2.10
2023-04-27T14:35:30.435Z,2.42
2023-04-27T14:38:06.287Z,2.05
2023-04-27T14:40:44.239Z,1.92
2023-04-27T14:43:12.653Z,2.30
2023-04-27T14:46:04.780Z,2.13
2023-04-27T14:48:48.621Z,2.28
2023-04-27T14:51:59.945Z,2.35
2023-04-27T14:54:57.955Z,1.92
2023-04-27T14:58:00.206Z,1.92
2023-04-27T15:01:00.370Z,2.00
2023-04-27T15:04:03.809Z,2.10
2023-04-27T15:07:04.951Z,1.50
2023-04-27T15:12:58.291Z,1.88
2023-04-27T15:15:31.739Z,1.90
2023-04-27T15:17:58.997Z,1.92
2023-04-27T15:20:26.091Z,2.28
2023-04-27T15:22:53.012Z,1.60
2023-04-27T15:25:20.908Z,1.75
2023-04-27T15:27:47.880Z,1.98
2023-04-27T15:30:16.230Z,2.20
2023-04-27T15:32:43.301Z,1.90
2023-04-27T15:35:10.530Z,1.73
2023-04-27T15:37:37.657Z,1.92
2023-04-27T15:40:07.849Z,2.08
2023-04-27T15:42:34.809Z,1.85
2023-04-27T15:45:01.985Z,2.20
2023-04-27T15:47:28.991Z,1.80
2023-04-27T15:49:57.774Z,1.75
2023-04-27T15:52:27.219Z,2.20
2023-04-27T15:54:55.014Z,1.73
2023-04-27T15:57:22.031Z,1.88
2023-04-27T15:59:48.983Z,1.88
2023-04-27T16:02:16.142Z,1.88
2023-04-27T16:04:43.265Z,1.50
2023-04-27T16:07:10.296Z,1.83
2023-04-27T16:09:37.722Z,1.67
2023-04-27T16:12:05.115Z,1.48
2023-04-27T16:14:32.037Z,1.45
2023-04-27T16:17:02.693Z,1.20
2023-04-27T16:19:29.797Z,1.40
2023-04-27T16:21:56.784Z,1.27
2023-04-27T16:24:25.923Z,1.15
2023-04-27T16:26:52.879Z,1.60
2023-04-27T16:29:19.830Z,1.40
2023-04-27T16:31:50.073Z,1.55
2023-04-27T16:34:16.965Z,1.33
2023-04-27T16:36:44.181Z,1.40
2023-04-27T16:39:11.099Z,1.20
2023-04-27T16:41:37.964Z,1.38
2023-04-27T16:44:05.090Z,1.35
2023-04-27T16:46:32.215Z,1.50
2023-04-27T16:48:59.132Z,1.58
2023-04-27T16:51:26.818Z,1.42
2023-04-27T16:53:53.703Z,1.50
2023-04-27T16:56:28.757Z,1.52
2023-04-27T16:58:55.997Z,1.40
2023-04-27T17:01:23.898Z,1.52
2023-04-27T17:03:51.041Z,1.38
2023-04-27T17:06:18.069Z,1.52
2023-04-27T17:08:44.972Z,1.77
2023-04-27T17:11:12.141Z,2.47
2023-04-27T17:13:39.038Z,2.35
2023-04-27T17:16:06.861Z,1.65
2023-04-27T17:18:34.076Z,1.60
2023-04-27T17:21:02.301Z,1.58
2023-04-27T17:23:29.189Z,1.23
2023-04-27T17:25:56.586Z,1.60
2023-04-27T17:28:23.621Z,4.00
2023-04-27T17:30:50.716Z,2.90
2023-04-27T17:33:17.829Z,1.52
2023-04-27T17:35:44.945Z,1.20
2023-04-27T17:38:11.946Z,0.93
2023-04-27T17:40:39.004Z,1.35
2023-04-27T17:43:05.960Z,1.70
2023-04-27T17:45:33.060Z,1.30
2023-04-27T17:48:00.224Z,1.38
2023-04-27T17:50:27.494Z,1.42
2023-04-27T17:52:54.582Z,1.50
2023-04-27T17:55:31.400Z,1.42
2023-04-27T17:57:59.892Z,1.38
2023-04-27T18:01:29.845Z,1.27
2023-04-27T18:03:56.962Z,1.48
2023-04-27T18:06:24.017Z,1.60
2023-04-27T18:08:50.932Z,1.20
2023-04-27T18:11:18.209Z,1.50
2023-04-27T18:13:47.080Z,1.67
2023-04-27T18:16:17.186Z,1.40
2023-04-27T18:18:44.883Z,1.40
2023-04-27T18:21:12.262Z,1.30
2023-04-27T18:23:41.439Z,1.48
2023-04-27T18:26:10.952Z,1.20
2023-04-27T18:28:40.608Z,1.65
2023-04-27T18:31:16.358Z,1.50
2023-04-27T18:33:47.020Z,1.50
2023-04-27T18:36:14.074Z,1.60
2023-04-27T18:38:41.247Z,1.30
2023-04-27T18:41:08.278Z,1.60
2023-04-27T18:43:41.470Z,1.73
2023-04-27T18:46:08.640Z,1.60
2023-04-27T18:48:36.084Z,1.50
2023-04-27T18:51:03.124Z,2.05
2023-04-27T18:53:30.219Z,1.50
2023-04-27T18:55:57.885Z,1.42
2023-04-27T18:58:26.089Z,1.58
2023-04-27T19:00:53.351Z,1.80
2023-04-27T19:03:20.658Z,1.75
2023-04-27T19:05:51.407Z,1.67
2023-04-27T19:08:18.562Z,1.67
2023-04-27T19:10:46.196Z,1.80
2023-04-27T19:13:13.184Z,1.75
2023-04-27T19:15:40.501Z,2.30
2023-04-27T19:18:10.949Z,1.50
2023-04-27T19:20:39.559Z,1.85
2023-04-27T19:23:08.034Z,1.52
2023-04-27T19:25:35.391Z,1.65
2023-04-27T19:28:02.376Z,1.58
2023-04-27T19:30:29.492Z,1.60
2023-04-27T19:32:56.548Z,1.30
2023-04-27T19:35:24.049Z,1.70
2023-04-27T19:37:51.253Z,1.40
2023-04-27T19:40:18.448Z,1.70
2023-04-27T19:42:46.484Z,1.60
2023-04-27T19:45:19.610Z,1.80
2023-04-27T19:47:48.952Z,1.60
2023-04-27T19:50:17.182Z,1.80
2023-04-27T19:52:46.241Z,1.88
2023-04-27T19:55:18.412Z,1.77
2023-04-27T19:57:46.212Z,2.17
2023-04-27T20:00:14.669Z,1.50
2023-04-27T20:02:42.034Z,1.63
2023-04-27T20:05:09.999Z,1.50
2023-04-27T20:07:37.499Z,2.20
2023-04-27T20:10:06.244Z,2.00
2023-04-27T20:12:47.872Z,1.48
2023-04-27T20:15:20.651Z,1.90
2023-04-27T20:17:47.909Z,1.80
2023-04-27T20:20:14.952Z,1.50
2023-04-27T20:22:41.935Z,1.60
2023-04-27T20:25:09.629Z,1.52
2023-04-27T20:27:36.654Z,1.70
2023-04-27T20:30:04.603Z,1.80
2023-04-27T20:32:31.761Z,1.60
2023-04-27T20:35:00.197Z,1.60
2023-04-27T20:37:28.633Z,1.25
2023-04-27T20:39:55.971Z,2.45
2023-04-27T20:42:22.921Z,2.35
2023-04-27T20:44:50.533Z,1.98
2023-04-27T20:47:17.540Z,1.90
2023-04-27T20:49:44.602Z,1.90
2023-04-27T20:52:11.684Z,1.90
2023-04-27T20:54:39.747Z,1.70
2023-04-27T20:57:10.984Z,1.40
2023-04-27T20:59:38.021Z,1.42
2023-04-27T21:02:05.045Z,1.60
2023-04-27T21:04:32.107Z,1.52
2023-04-27T21:06:59.050Z,1.40
2023-04-27T21:09:26.171Z,1.50
2023-04-27T21:11:53.735Z,1.60
2023-04-27T21:14:20.811Z,1.60
2023-04-27T21:16:47.937Z,1.75
2023-04-27T21:19:16.862Z,1.40
2023-04-27T21:21:44.179Z,1.42
2023-04-27T21:24:11.910Z,1.55
2023-04-27T21:26:39.001Z,1.35
2023-04-27T21:29:08.221Z,1.60
2023-04-27T21:31:35.682Z,1.42
2023-04-27T21:34:05.916Z,1.60
2023-04-27T21:36:32.941Z,1.67
2023-04-27T21:39:00.067Z,1.65
2023-04-27T21:41:27.375Z,1.45
2023-04-27T21:43:54.594Z,1.48
2023-04-27T21:46:24.064Z,1.20
2023-04-27T21:48:51.203Z,1.50
2023-04-27T21:51:18.185Z,1.60
2023-04-27T21:53:45.402Z,1.58
2023-04-27T21:56:12.408Z,1.50
2023-04-27T21:58:39.304Z,1.40
2023-04-27T22:01:06.644Z,2.03
2023-04-27T22:03:33.721Z,1.90
2023-04-27T22:06:00.755Z,2.00
2023-04-27T22:08:27.830Z,1.90
2023-04-27T22:10:56.099Z,1.90
2023-04-27T22:13:23.062Z,1.60
2023-04-27T22:15:53.421Z,1.63
2023-04-27T22:18:31.276Z,1.48
2023-04-27T22:21:03.133Z,1.77
2023-04-27T22:23:32.254Z,1.70
2023-04-27T22:25:59.519Z,1.90
2023-04-27T22:28:26.387Z,1.80
2023-04-27T22:30:53.528Z,1.90
2023-04-27T22:33:20.688Z,1.80
2023-04-27T22:35:47.969Z,1.65
2023-04-27T22:38:14.889Z,1.65
2023-04-27T22:40:41.858Z,2.08
2023-04-27T22:43:08.829Z,2.40
2023-04-27T22:45:37.399Z,1.60
2023-04-27T22:48:06.253Z,1.85
2023-04-27T22:50:33.314Z,1.80
2023-04-27T22:53:01.012Z,1.85
2023-04-27T22:55:28.366Z,1.60
2023-04-27T22:57:55.423Z,1.88
2023-04-27T23:00:22.400Z,1.80
2023-04-27T23:02:49.445Z,1.90
2023-04-27T23:05:16.750Z,1.85
2023-04-27T23:07:43.821Z,2.47
2023-04-27T23:10:11.229Z,1.85
2023-04-27T23:12:38.806Z,1.65
2023-04-27T23:15:07.154Z,1.98
2023-04-27T23:17:34.127Z,2.10
2023-04-27T23:20:08.740Z,2.00
2023-04-27T23:22:39.913Z,2.05
2023-04-27T23:25:07.204Z,2.50
2023-04-27T23:27:34.176Z,1.90
2023-04-27T23:30:01.096Z,2.47
2023-04-27T23:32:28.065Z,2.60
2023-04-27T23:34:55.366Z,2.95
2023-04-27T23:37:24.219Z,3.20
2023-04-27T23:39:51.341Z,3.08
2023-04-27T23:42:18.277Z,2.70
2023-04-27T23:44:45.259Z,2.85
2023-04-27T23:47:13.024Z,2.47
2023-04-27T23:49:44.487Z,2.50
2023-04-27T23:52:14.568Z,2.40
2023-04-27T23:54:41.568Z,2.50
2023-04-27T23:57:08.539Z,2.83
2023-04-27T23:59:36.025Z,2.58
